Time;durP1;ratioP1;P1;durP2;ratioP2;P2;SDS_P1;SDS_P2;PMS_P1;PMS_P2;Temp;Humidity;BMP_temperature;BMP_pressure;BME280_temperature;BME280_humidity;BME280_pressure;Samples;Min_cycle;Max_cycle;Signal;HPM_P1;HPM_P2
2022/05/26 00:02:14;;;;;;;1.23;0.80;;;12.60;69.00;;;;;;5094631;28;20020;-73
2022/05/26 00:04:40;;;;;;;2.47;1.10;;;12.60;69.30;;;;;;5094327;28;20025;-72
2022/05/26 00:07:05;;;;;;;3.90;0.98;;;12.60;68.90;;;;;;5094376;28;20090;-73
2022/05/26 00:09:31;;;;;;;4.25;0.85;;;12.70;68.90;;;;;;5094239;28;20105;-73
2022/05/26 00:11:56;;;;;;;2.35;0.70;;;12.70;69.00;;;;;;5094354;28;20035;-73
2022/05/26 00:14:22;;;;;;;3.17;1.08;;;12.70;68.50;;;;;;5076021;28;20028;-73
2022/05/26 00:16:48;;;;;;;1.33;0.60;;;12.70;68.70;;;;;;5094294;28;20024;-73
2022/05/26 00:19:16;;;;;;;2.40;1.02;;;12.70;69.10;;;;;;5094226;28;20096;-72
2022/05/26 00:21:42;;;;;;;0.77;0.77;;;12.70;69.10;;;;;;5094107;28;20028;-73
2022/05/26 00:24:08;;;;;;;4.93;1.10;;;12.60;69.10;;;;;;5094218;28;20042;-73
2022/05/26 00:26:34;;;;;;;1.83;1.00;;;12.70;68.90;;;;;;5096768;28;20035;-72
2022/05/26 00:28:59;;;;;;;2.20;1.10;;;12.60;69.20;;;;;;5093422;28;20418;-73
2022/05/26 00:31:25;;;;;;;2.22;1.10;;;12.50;69.70;;;;;;5093971;28;20031;-73
2022/05/26 00:33:51;;;;;;;2.58;1.10;;;12.40;70.00;;;;;;5094006;28;20099;-72
2022/05/26 00:36:37;;;;;;;3.17;1.35;;;12.40;70.20;;;;;;5093986;28;20024;-73
2022/05/26 00:39:09;;;;;;;1.85;0.95;;;12.40;70.20;;;;;;5093919;28;20020;-73
2022/05/26 00:41:38;;;;;;;3.70;1.30;;;12.40;70.20;;;;;;5093852;28;20077;-73
2022/05/26 00:44:04;;;;;;;3.15;0.95;;;12.40;70.10;;;;;;5093806;28;20495;-73
2022/05/26 00:46:42;;;;;;;2.25;1.10;;;12.40;70.70;;;;;;5093575;28;20067;-74
2022/05/26 00:49:18;;;;;;;1.95;0.90;;;12.50;69.80;;;;;;5093514;28;20024;-73
2022/05/26 00:51:45;;;;;;;2.85;1.10;;;12.60;69.60;;;;;;5093607;28;20035;-73
2022/05/26 00:54:17;;;;;;;1.45;1.00;;;12.60;69.50;;;;;;5093662;28;20480;-72
2022/05/26 00:57:22;;;;;;;2.65;1.10;;;12.60;69.50;;;;;;5093552;28;20539;-72
2022/05/26 00:59:51;;;;;;;2.17;0.93;;;12.50;69.80;;;;;;5089927;28;20119;-72
2022/05/26 01:02:21;;;;;;;2.67;1.10;;;12.50;69.70;;;;;;5094345;28;20107;-72
2022/05/26 01:04:50;;;;;;;1.40;1.02;;;12.60;69.50;;;;;;5093736;28;20028;-74
2022/05/26 01:07:22;;;;;;;1.95;0.95;;;12.60;69.60;;;;;;5093959;28;20044;-73
2022/05/26 01:09:47;;;;;;;5.30;1.00;;;12.60;69.30;;;;;;5093405;28;20418;-74
2022/05/26 01:12:13;;;;;;;2.75;1.20;;;12.50;69.60;;;;;;5093340;28;20024;-73
2022/05/26 01:14:51;;;;;;;2.95;0.90;;;12.50;69.70;;;;;;5093270;28;20099;-73
2022/05/26 01:17:25;;;;;;;2.58;1.13;;;12.50;69.70;;;;;;5093212;28;20027;-73
2022/05/26 01:20:07;;;;;;;4.47;1.20;;;12.50;69.70;;;;;;5093254;28;20024;-74
2022/05/26 01:22:58;;;;;;;1.73;0.95;;;12.50;70.00;;;;;;5093057;28;20051;-74
2022/05/26 01:25:55;;;;;;;3.97;0.80;;;12.50;70.20;;;;;;5093039;28;20380;-72
2022/05/26 01:28:23;;;;;;;0.95;0.65;;;12.60;69.80;;;;;;5093077;28;20024;-74
2022/05/26 01:31:09;;;;;;;4.25;0.90;;;12.60;70.00;;;;;;5092997;28;20024;-73
2022/05/26 01:33:56;;;;;;;0.52;0.52;;;12.60;69.50;;;;;;5078614;28;20032;-73
2022/05/26 01:36:34;;;;;;;2.50;0.90;;;12.60;69.60;;;;;;5093103;28;20024;-73
2022/05/26 01:39:03;;;;;;;2.92;0.82;;;12.60;69.80;;;;;;5092063;28;20108;-73
2022/05/26 01:41:38;;;;;;;2.78;0.70;;;12.70;69.80;;;;;;5093114;28;20016;-74
2022/05/26 01:44:11;;;;;;;1.40;0.95;;;12.70;69.60;;;;;;5074769;28;20028;-73
2022/05/26 01:46:42;;;;;;;2.55;0.68;;;12.70;69.50;;;;;;5092784;28;20397;-72
2022/05/26 01:49:23;;;;;;;0.98;0.90;;;12.70;69.60;;;;;;5092812;28;20071;-77
2022/05/26 01:52:18;;;;;;;2.00;0.80;;;12.70;69.30;;;;;;5092807;28;20028;-76
2022/05/26 01:55:03;;;;;;;0.93;0.75;;;12.60;69.30;;;;;;5074598;28;20028;-73
2022/05/26 01:57:52;;;;;;;2.45;0.60;;;12.60;69.70;;;;;;5092810;28;20130;-73
2022/05/26 02:00:19;;;;;;;2.25;0.80;;;12.60;70.60;;;;;;5092868;28;20055;-73
2022/05/26 02:02:55;;;;;;;1.23;0.90;;;12.60;69.90;;;;;;5092675;28;20030;-73
2022/05/26 02:05:25;;;;;;;2.47;0.60;;;12.50;70.10;;;;;;5092749;28;20052;-73
2022/05/26 02:08:32;;;;;;;1.40;0.60;;;12.60;70.20;;;;;;5092752;28;20082;-73
2022/05/26 02:11:19;;;;;;;2.63;0.70;;;12.60;70.20;;;;;;5091927;28;20032;-74
2022/05/26 02:13:57;;;;;;;3.38;0.73;;;12.70;70.30;;;;;;5092613;28;20400;-73
2022/05/26 02:16:28;;;;;;;2.55;0.55;;;12.70;70.20;;;;;;5092594;28;20107;-72
2022/05/26 02:18:55;;;;;;;2.65;0.50;;;12.70;69.90;;;;;;5092599;28;20020;-73
2022/05/26 02:21:36;;;;;;;2.60;0.80;;;12.70;70.10;;;;;;5092580;28;20035;-73
2022/05/26 02:24:07;;;;;;;1.60;0.70;;;12.70;70.20;;;;;;5092406;28;20435;-73
2022/05/26 02:26:35;;;;;;;2.13;0.60;;;12.60;70.40;;;;;;5074312;28;20036;-73
2022/05/26 02:31:48;;;;;;;1.70;0.80;;;12.60;70.80;;;;;;5092968;28;20067;-73
2022/05/26 02:34:16;;;;;;;3.05;0.73;;;12.50;70.80;;;;;;5092607;28;20366;-73
2022/05/26 02:36:43;;;;;;;2.58;0.90;;;12.50;70.80;;;;;;5092482;28;20477;-73
2022/05/26 02:39:09;;;;;;;1.38;0.95;;;12.50;71.10;;;;;;5092823;28;20111;-73
2022/05/26 02:41:36;;;;;;;3.50;0.90;;;12.50;71.20;;;;;;5092218;28;20103;-73
2022/05/26 02:44:04;;;;;;;2.55;0.73;;;12.50;71.20;;;;;;5092338;28;20082;-74
2022/05/26 02:47:12;;;;;;;1.85;1.00;;;12.50;71.20;;;;;;5092267;28;20128;-73
2022/05/26 02:49:56;;;;;;;0.95;0.70;;;12.40;71.40;;;;;;5010215;28;20034;-73
2022/05/26 02:52:34;;;;;;;2.22;1.10;;;12.50;71.60;;;;;;5093470;28;20039;-73
2022/05/26 02:55:20;;;;;;;3.05;0.70;;;12.50;71.60;;;;;;5077660;28;20031;-73
2022/05/26 02:58:32;;;;;;;4.82;1.02;;;12.50;71.60;;;;;;5095691;28;20020;-73
2022/05/26 03:01:39;;;;;;;1.98;1.20;;;12.50;71.70;;;;;;5077277;28;20024;-73
2022/05/26 03:04:15;;;;;;;2.88;2.08;;;12.50;72.00;;;;;;5095789;28;20436;-74
2022/05/26 03:06:47;;;;;;;4.28;2.63;;;12.50;72.00;;;;;;5095690;28;20032;-74
2022/05/26 03:09:13;;;;;;;6.57;3.00;;;12.50;72.10;;;;;;5095707;28;20092;-74
2022/05/26 03:11:50;;;;;;;4.80;3.33;;;12.60;72.10;;;;;;5095619;28;20027;-74
2022/05/26 03:14:17;;;;;;;3.38;2.70;;;12.60;72.30;;;;;;5095572;28;20020;-74
2022/05/26 03:16:43;;;;;;;5.53;3.60;;;12.60;72.10;;;;;;5095249;28;20361;-73
2022/05/26 03:19:09;;;;;;;5.25;3.03;;;12.60;72.00;;;;;;5077159;28;20028;-74
2022/05/26 03:21:35;;;;;;;6.78;3.70;;;12.50;72.40;;;;;;5095317;28;20102;-73
2022/05/26 03:24:01;;;;;;;9.10;4.15;;;12.40;72.90;;;;;;5095088;28;20115;-73
2022/05/26 03:26:26;;;;;;;6.00;3.83;;;12.40;72.80;;;;;;5095215;28;20153;-73
2022/05/26 03:28:52;;;;;;;8.63;4.32;;;12.40;73.10;;;;;;5095268;28;20028;-73
2022/05/26 03:31:18;;;;;;;5.50;3.25;;;12.30;73.30;;;;;;5095216;28;20093;-73
2022/05/26 03:41:56;;;;;;;2.25;1.45;;;12.30;72.70;;;;;;5095086;28;20051;-77
2022/05/26 03:44:24;;;;;;;2.08;0.95;;;12.30;72.80;;;;;;5094717;28;20028;-77
2022/05/26 03:46:50;;;;;;;6.93;1.10;;;12.30;72.90;;;;;;5094675;28;20036;-75
2022/05/26 03:49:16;;;;;;;1.25;1.00;;;12.20;73.10;;;;;;5094815;28;20021;-76
2022/05/26 03:51:41;;;;;;;1.33;0.85;;;12.20;73.20;;;;;;5093502;28;20035;-74
2022/05/26 03:54:07;;;;;;;2.40;1.00;;;12.20;73.30;;;;;;5094776;28;20028;-76
2022/05/26 03:56:32;;;;;;;2.88;0.82;;;12.30;73.40;;;;;;5094632;28;20020;-77
2022/05/26 03:58:58;;;;;;;1.15;0.82;;;12.30;73.30;;;;;;5096736;28;20080;-78
2022/05/26 04:01:23;;;;;;;2.40;0.80;;;12.40;73.10;;;;;;5094867;28;20044;-75
2022/05/26 04:03:49;;;;;;;0.90;0.75;;;12.40;72.60;;;;;;5094332;28;20055;-75
2022/05/26 04:06:16;;;;;;;0.98;0.80;;;12.50;72.70;;;;;;5094541;28;20474;-76
2022/05/26 04:08:41;;;;;;;1.52;0.70;;;12.50;72.70;;;;;;5094503;28;20016;-77
2022/05/26 04:11:07;;;;;;;1.98;0.90;;;12.50;72.80;;;;;;5094317;28;20028;-76
2022/05/26 04:13:33;;;;;;;1.05;0.70;;;12.60;72.70;;;;;;5094416;28;20031;-73
2022/05/26 04:15:59;;;;;;;1.63;0.70;;;12.70;72.50;;;;;;5094317;28;20070;-74
2022/05/26 04:18:25;;;;;;;2.40;0.70;;;12.70;72.30;;;;;;5094009;28;20028;-74
2022/05/26 04:20:50;;;;;;;1.52;0.63;;;12.80;72.00;;;;;;5094130;28;20024;-76
2022/05/26 04:23:16;;;;;;;0.85;0.60;;;12.80;71.70;;;;;;5093571;28;20496;-74
2022/05/26 04:25:41;;;;;;;3.00;0.82;;;12.90;71.60;;;;;;5094078;28;20020;-76
2022/05/26 04:28:07;;;;;;;2.15;1.05;;;12.90;71.70;;;;;;5094141;28;20032;-77
2022/05/26 04:30:33;;;;;;;1.63;0.77;;;12.90;71.60;;;;;;5075977;28;20113;-73
2022/05/26 04:32:59;;;;;;;2.42;0.95;;;13.00;71.60;;;;;;5092748;28;20024;-74
2022/05/26 04:35:25;;;;;;;2.13;0.70;;;13.10;71.40;;;;;;5093911;28;20358;-75
2022/05/26 04:37:51;;;;;;;4.03;0.50;;;13.10;71.30;;;;;;5093855;28;20027;-75
2022/05/26 04:40:17;;;;;;;0.77;0.43;;;13.20;71.30;;;;;;5093801;28;20013;-74
2022/05/26 04:42:42;;;;;;;0.77;0.60;;;13.30;71.40;;;;;;5093700;28;20357;-75
2022/05/26 04:45:11;;;;;;;1.63;0.70;;;13.40;71.10;;;;;;5092432;28;20040;-76
2022/05/26 04:47:36;;;;;;;2.45;0.65;;;13.50;71.00;;;;;;5093623;28;20024;-78
2022/05/26 04:50:02;;;;;;;2.72;0.60;;;13.50;70.90;;;;;;5093675;28;20020;-74
2022/05/26 04:52:28;;;;;;;1.63;0.60;;;13.60;71.00;;;;;;5093688;28;20226;-74
2022/05/26 04:54:54;;;;;;;1.05;0.70;;;13.60;71.00;;;;;;5093676;28;20463;-74
2022/05/26 04:57:23;;;;;;;2.40;0.80;;;13.80;70.90;;;;;;5093570;28;20016;-74
2022/05/26 04:59:48;;;;;;;1.65;0.70;;;13.90;71.10;;;;;;5093520;28;20024;-73
2022/05/26 05:02:16;;;;;;;0.82;0.40;;;13.90;71.00;;;;;;5075388;28;20017;-73
2022/05/26 05:04:44;;;;;;;0.52;0.50;;;14.00;70.70;;;;;;5093300;28;20024;-74
2022/05/26 05:07:11;;;;;;;0.47;0.40;;;14.10;70.50;;;;;;5093410;28;20575;-74
2022/05/26 05:09:38;;;;;;;1.73;0.82;;;14.10;70.20;;;;;;5093414;28;20039;-74
2022/05/26 05:12:05;;;;;;;1.88;0.50;;;14.20;69.90;;;;;;5093276;28;20020;-74
2022/05/26 05:14:40;;;;;;;0.90;0.50;;;14.30;69.70;;;;;;5093102;28;20357;-73
2022/05/26 05:17:05;;;;;;;1.27;0.45;;;14.40;69.20;;;;;;5093285;28;20518;-73
2022/05/26 05:19:31;;;;;;;1.20;0.70;;;14.40;68.60;;;;;;5091997;28;20028;-73
2022/05/26 05:22:00;;;;;;;1.88;0.65;;;14.40;67.60;;;;;;5092934;28;20024;-74
2022/05/26 05:24:38;;;;;;;4.30;0.70;;;14.50;65.60;;;;;;5093079;28;20024;-74
2022/05/26 05:27:11;;;;;;;2.53;0.70;;;14.50;65.90;;;;;;5093116;28;20042;-73
2022/05/26 05:29:51;;;;;;;;;;;14.60;65.80;;;;;;5090799;28;20397;-72
2022/05/26 05:32:26;;;;;;;5.30;0.63;;;14.70;63.20;;;;;;5090236;28;19908;-73
2022/05/26 05:35:00;;;;;;;1.58;1.10;;;14.90;61.50;;;;;;5090215;28;20494;-73
2022/05/26 05:37:26;;;;;;;5.65;0.68;;;14.90;61.00;;;;;;5090258;28;20032;-73
2022/05/26 05:39:51;;;;;;;1.50;0.68;;;15.10;59.50;;;;;;5088784;28;20028;-73
2022/05/26 05:42:17;;;;;;;2.45;0.57;;;15.30;59.00;;;;;;5090068;28;20479;-73
2022/05/26 05:44:43;;;;;;;1.73;0.60;;;15.40;57.70;;;;;;5090005;28;20081;-73
2022/05/26 05:47:08;;;;;;;1.60;0.77;;;15.50;55.60;;;;;;5089985;28;20024;-73
2022/05/26 05:49:35;;;;;;;0.75;0.40;;;15.40;55.30;;;;;;5090013;28;20036;-73
2022/05/26 05:52:22;;;;;;;0.63;0.43;;;15.20;55.70;;;;;;5089943;28;20020;-73
2022/05/26 05:54:47;;;;;;;4.85;0.50;;;15.00;56.30;;;;;;5089895;28;20052;-73
2022/05/26 05:57:13;;;;;;;4.40;0.73;;;15.10;57.60;;;;;;5090182;28;20032;-73
2022/05/26 05:59:39;;;;;;;4.75;0.90;;;15.00;57.90;;;;;;5089922;28;20180;-73
2022/05/26 06:02:05;;;;;;;1.23;0.50;;;15.10;56.80;;;;;;5089784;28;20020;-73
2022/05/26 06:04:31;;;;;;;4.22;0.50;;;15.20;56.20;;;;;;5089612;28;20024;-74
2022/05/26 06:06:58;;;;;;;2.65;0.98;;;15.10;56.30;;;;;;5089833;28;20024;-74
2022/05/26 06:09:24;;;;;;;1.92;0.50;;;15.00;55.60;;;;;;5089564;28;20024;-74
2022/05/26 06:11:50;;;;;;;3.30;0.73;;;15.20;56.40;;;;;;5089551;28;20016;-74
2022/05/26 06:14:16;;;;;;;1.40;0.80;;;15.30;56.60;;;;;;5089842;28;20061;-74
2022/05/26 06:16:44;;;;;;;1.15;0.50;;;15.50;56.60;;;;;;5089433;28;20028;-73
2022/05/26 06:19:09;;;;;;;3.55;0.60;;;15.50;55.40;;;;;;5089497;28;20027;-75
2022/05/26 06:21:37;;;;;;;1.45;0.50;;;15.60;55.60;;;;;;5088018;28;20017;-73
2022/05/26 06:24:02;;;;;;;2.08;0.70;;;15.60;56.00;;;;;;5087984;28;20071;-73
2022/05/26 06:26:29;;;;;;;2.53;0.70;;;15.50;55.20;;;;;;5092468;28;20048;-73
2022/05/26 06:31:39;;;;;;;2.20;0.50;;;15.70;55.70;;;;;;5089280;28;20439;-74
2022/05/26 06:39:34;;;;;;;5.53;1.45;;;15.90;54.80;;;;;;5084838;28;20086;-74
2022/05/26 06:42:05;;;;;;;2.40;1.00;;;16.00;54.50;;;;;;5076193;28;20032;-74
2022/05/26 06:44:37;;;;;;;2.42;0.30;;;16.20;54.20;;;;;;5075408;28;20087;-73
2022/05/26 06:47:09;;;;;;;3.63;0.60;;;16.30;54.60;;;;;;5075411;28;20062;-73
2022/05/26 06:49:36;;;;;;;5.00;0.80;;;16.40;54.40;;;;;;5075480;28;20552;-81
2022/05/26 06:52:03;;;;;;;10.05;1.20;;;16.50;59.90;;;;;;5079315;28;20032;-87
2022/05/26 06:54:34;;;;;;;9.45;0.82;;;16.50;58.00;;;;;;5076084;28;20087;-75
2022/05/26 06:57:00;;;;;;;5.00;0.85;;;16.90;55.30;;;;;;5075261;28;20025;-74
2022/05/26 06:59:26;;;;;;;3.70;0.73;;;17.10;51.30;;;;;;5075111;28;20028;-74
2022/05/26 07:01:51;;;;;;;5.40;1.40;;;17.10;52.70;;;;;;5075149;28;20111;-74
2022/05/26 07:04:17;;;;;;;2.80;0.70;;;17.30;50.90;;;;;;5075046;28;20052;-73
2022/05/26 07:06:48;;;;;;;4.30;0.90;;;17.20;49.50;;;;;;5073916;28;20032;-73
2022/05/26 07:09:13;;;;;;;1.70;0.45;;;16.80;51.20;;;;;;5074939;28;20040;-73
2022/05/26 07:11:39;;;;;;;4.22;1.05;;;17.10;51.10;;;;;;5073777;28;20020;-73
2022/05/26 07:14:04;;;;;;;2.85;0.30;;;17.30;49.60;;;;;;5074940;28;20366;-72
2022/05/26 07:16:30;;;;;;;5.32;0.88;;;17.00;50.40;;;;;;5074945;28;20038;-73
2022/05/26 07:18:55;;;;;;;2.15;0.77;;;16.90;49.70;;;;;;5074867;28;20150;-72
2022/05/26 07:21:22;;;;;;;1.75;0.32;;;16.90;50.70;;;;;;5074750;28;20487;-72
2022/05/26 07:23:47;;;;;;;1.67;0.47;;;16.90;50.30;;;;;;5074651;28;20488;-73
2022/05/26 07:26:14;;;;;;;1.73;0.60;;;16.80;50.90;;;;;;5074689;28;20109;-73
2022/05/26 07:28:40;;;;;;;2.90;0.80;;;16.70;51.60;;;;;;5074402;28;20106;-72
2022/05/26 07:31:07;;;;;;;16.27;2.83;;;16.80;51.50;;;;;;5074499;28;20035;-72
2022/05/26 07:33:33;;;;;;;3.70;0.85;;;17.10;49.80;;;;;;5074550;28;20090;-73
2022/05/26 07:35:59;;;;;;;2.50;0.73;;;17.30;49.40;;;;;;5074456;28;20016;-72
2022/05/26 07:41:19;;;;;;;2.30;0.32;;;17.40;48.90;;;;;;5074376;28;20432;-72
2022/05/26 07:43:52;;;;;;;4.03;0.50;;;17.50;48.90;;;;;;5074289;28;20452;-72
2022/05/26 07:46:20;;;;;;;1.80;0.57;;;17.60;48.40;;;;;;5074335;28;20020;-72
2022/05/26 07:48:46;;;;;;;14.00;0.88;;;17.70;49.10;;;;;;5074232;28;20036;-72
2022/05/26 07:51:12;;;;;;;1.65;0.70;;;17.90;48.90;;;;;;5072120;28;20039;-72
2022/05/26 07:53:37;;;;;;;1.95;0.43;;;18.20;47.70;;;;;;5074027;28;20032;-72
2022/05/26 07:56:04;;;;;;;1.50;0.45;;;18.30;47.10;;;;;;5074141;28;20029;-72
2022/05/26 07:58:29;;;;;;;2.95;0.70;;;18.20;46.40;;;;;;5074399;28;20039;-72
2022/05/26 08:00:55;;;;;;;0.73;0.30;;;18.20;46.80;;;;;;5074036;28;20021;-72
2022/05/26 08:03:22;;;;;;;0.85;0.40;;;18.20;45.70;;;;;;5072714;28;20066;-72
2022/05/26 08:05:47;;;;;;;3.13;0.50;;;18.40;45.70;;;;;;5072647;28;20039;-73
2022/05/26 08:08:15;;;;;;;2.30;0.45;;;18.30;44.30;;;;;;5073862;28;20024;-74
2022/05/26 08:10:40;;;;;;;1.27;0.43;;;18.40;44.00;;;;;;5073746;28;20031;-74
2022/05/26 08:13:06;;;;;;;1.10;0.47;;;18.20;44.10;;;;;;5073783;28;20099;-73
2022/05/26 08:15:33;;;;;;;3.53;1.95;;;18.00;45.00;;;;;;5073704;28;20028;-75
2022/05/26 08:17:59;;;;;;;1.33;0.77;;;18.00;45.50;;;;;;5075207;28;20056;-74
2022/05/26 08:20:25;;;;;;;0.85;0.30;;;18.30;43.90;;;;;;5073946;28;20056;-74
2022/05/26 08:22:51;;;;;;;0.60;0.30;;;18.20;43.60;;;;;;5076538;28;20035;-74
2022/05/26 08:25:17;;;;;;;1.60;0.45;;;18.30;43.90;;;;;;5073590;28;20100;-74
2022/05/26 08:27:42;;;;;;;2.15;0.30;;;18.30;43.70;;;;;;5073476;28;20111;-73
2022/05/26 08:30:08;;;;;;;2.22;0.32;;;18.20;43.70;;;;;;5073643;28;20031;-74
2022/05/26 08:32:34;;;;;;;1.05;0.35;;;18.40;43.50;;;;;;5073728;28;20108;-74
2022/05/26 08:35:08;;;;;;;2.33;0.68;;;18.50;41.70;;;;;;5072358;28;20469;-74
2022/05/26 08:37:34;;;;;;;3.35;0.40;;;18.40;42.60;;;;;;5073698;28;20043;-73
2022/05/26 08:40:00;;;;;;;0.55;0.40;;;18.40;42.40;;;;;;5073632;28;20457;-74
2022/05/26 08:42:28;;;;;;;2.55;0.40;;;18.30;42.10;;;;;;5073638;28;20031;-74
2022/05/26 08:45:00;;;;;;;5.22;0.60;;;18.30;41.90;;;;;;5073507;28;20069;-74
2022/05/26 08:47:40;;;;;;;2.20;0.60;;;18.40;44.40;;;;;;5074016;28;20044;-74
2022/05/26 08:50:10;;;;;;;5.07;0.40;;;18.60;42.20;;;;;;5074767;28;20059;-74
2022/05/26 08:52:44;;;;;;;1.40;0.40;;;18.80;40.20;;;;;;5079416;28;20024;-76
2022/05/26 08:55:21;;;;;;;1.75;0.30;;;18.70;41.20;;;;;;5074262;28;20164;-76
2022/05/26 08:58:04;;;;;;;0.88;0.40;;;18.60;40.30;;;;;;5084885;28;20025;-78
2022/05/26 09:00:31;;;;;;;1.30;0.38;;;18.40;41.40;;;;;;5085460;28;20086;-74
2022/05/26 09:03:00;;;;;;;3.05;0.55;;;18.40;41.10;;;;;;5084214;28;20027;-78
2022/05/26 09:05:34;;;;;;;3.35;0.30;;;18.40;40.30;;;;;;5087040;28;20044;-75
2022/05/26 09:13:39;;;;;;;2.65;0.45;;;18.80;40.30;;;;;;5073611;28;20112;-77
2022/05/26 09:16:08;;;;;;;1.25;0.40;;;18.80;39.40;;;;;;5072132;28;20423;-77
2022/05/26 09:18:36;;;;;;;0.88;0.40;;;18.60;39.30;;;;;;5073193;28;20028;-77
2022/05/26 09:21:12;;;;;;;1.70;0.38;;;18.50;40.50;;;;;;5073158;28;20510;-78
2022/05/26 09:23:42;;;;;;;1.05;0.43;;;18.50;40.10;;;;;;5071570;28;20422;-78
2022/05/26 09:26:11;;;;;;;2.60;0.55;;;18.40;40.50;;;;;;5073113;28;20528;-73
2022/05/26 09:28:37;;;;;;;1.50;0.30;;;18.30;41.70;;;;;;5072671;28;20515;-73
2022/05/26 09:31:25;;;;;;;1.83;0.40;;;18.30;41.70;;;;;;5075884;28;20104;-74
2022/05/26 09:34:03;;;;;;;2.90;0.40;;;18.60;40.90;;;;;;5069341;28;20047;-74
2022/05/26 09:36:38;;;;;;;1.63;0.30;;;18.90;40.60;;;;;;5071666;28;20489;-74
2022/05/26 09:39:05;;;;;;;3.35;0.50;;;19.00;39.10;;;;;;5072894;28;20028;-74
2022/05/26 09:41:42;;;;;;;0.75;0.30;;;19.10;41.60;;;;;;5072887;28;20107;-74
2022/05/26 09:44:40;;;;;;;1.75;0.40;;;19.00;42.70;;;;;;5072828;28;20017;-72
2022/05/26 09:47:27;;;;;;;0.63;0.30;;;18.90;42.50;;;;;;5068681;28;20488;-73
2022/05/26 09:49:55;;;;;;;0.70;0.40;;;18.90;42.70;;;;;;5072653;28;20071;-72
2022/05/26 09:52:25;;;;;;;5.13;0.60;;;19.10;43.20;;;;;;5072553;28;20435;-72
2022/05/26 09:55:19;;;;;;;1.35;0.50;;;19.40;43.50;;;;;;5071349;28;20055;-74
2022/05/26 09:57:46;;;;;;;0.20;0.20;;;19.40;43.70;;;;;;5072759;28;20025;-73
2022/05/26 10:00:17;;;;;;;0.30;0.30;;;19.50;43.30;;;;;;5072558;28;20032;-73
2022/05/26 10:02:46;;;;;;;4.90;0.70;;;19.50;44.50;;;;;;5072552;28;20028;-73
2022/05/26 10:05:29;;;;;;;4.85;0.60;;;19.60;42.00;;;;;;5072420;28;20028;-73
2022/05/26 10:08:00;;;;;;;1.85;0.50;;;19.60;42.80;;;;;;5072482;28;20098;-72
2022/05/26 10:10:59;;;;;;;2.28;0.40;;;19.50;44.70;;;;;;5072548;28;20024;-74
2022/05/26 10:14:03;;;;;;;0.75;0.38;;;19.60;42.30;;;;;;5072256;28;20040;-73
2022/05/26 10:16:44;;;;;;;0.47;0.30;;;20.10;41.50;;;;;;5053769;28;20100;-73
2022/05/26 10:19:31;;;;;;;0.80;0.35;;;20.40;40.50;;;;;;5053959;28;20521;-73
2022/05/26 10:22:08;;;;;;;1.20;0.57;;;20.40;40.60;;;;;;5069970;28;20097;-73
2022/05/26 10:25:12;;;;;;;1.40;0.30;;;20.00;38.80;;;;;;5075971;28;20035;-75
2022/05/26 10:27:50;;;;;;;1.15;0.30;;;19.50;40.50;;;;;;5064696;28;20532;-73
2022/05/26 10:30:21;;;;;;;1.45;0.40;;;19.70;40.50;;;;;;5076078;28;20024;-74
2022/05/26 10:32:57;;;;;;;2.38;1.08;;;19.50;42.00;;;;;;5074656;28;20027;-74
2022/05/26 10:35:27;;;;;;;1.15;0.40;;;19.70;41.30;;;;;;5075866;28;20496;-77
2022/05/26 10:38:19;;;;;;;2.42;0.47;;;19.80;39.90;;;;;;5075895;28;20024;-77
2022/05/26 10:41:25;;;;;;;2.08;0.60;;;19.90;38.30;;;;;;5075693;28;20028;-73
2022/05/26 10:44:02;;;;;;;3.78;0.40;;;20.00;38.50;;;;;;5074564;28;20028;-77
2022/05/26 10:46:33;;;;;;;0.95;0.30;;;19.90;38.90;;;;;;5075906;28;20055;-77
2022/05/26 10:49:21;;;;;;;0.50;0.20;;;19.80;39.70;;;;;;5075631;28;20037;-77
2022/05/26 10:51:55;;;;;;;1.95;0.50;;;19.40;41.40;;;;;;5075509;28;20082;-77
2022/05/26 10:54:45;;;;;;;2.08;0.73;;;19.40;41.50;;;;;;5075628;28;20024;-76
2022/05/26 10:57:29;;;;;;;0.85;0.40;;;19.40;40.40;;;;;;5075489;28;20028;-76
2022/05/26 11:00:10;;;;;;;1.02;0.40;;;19.70;40.20;;;;;;5075375;28;20012;-75
2022/05/26 11:02:51;;;;;;;2.08;0.20;;;19.60;41.50;;;;;;5075426;28;20039;-76
2022/05/26 11:05:36;;;;;;;1.90;0.50;;;19.70;41.00;;;;;;5075447;28;20024;-78
2022/05/26 11:08:14;;;;;;;2.47;0.70;;;19.70;41.00;;;;;;5075379;28;20105;-77
2022/05/26 11:11:20;;;;;;;0.40;0.30;;;19.60;40.10;;;;;;5075103;28;20381;-78
2022/05/26 11:13:57;;;;;;;0.88;0.45;;;19.60;41.70;;;;;;5074133;28;20032;-76
2022/05/26 11:20:08;;;;;;;1.35;0.50;;;20.00;39.10;;;;;;5075277;28;20052;-77
2022/05/26 11:22:33;;;;;;;1.85;0.57;;;20.30;39.40;;;;;;5074867;28;20058;-77
2022/05/26 11:25:00;;;;;;;1.10;0.50;;;20.30;40.50;;;;;;5075265;28;20021;-77
2022/05/26 11:27:30;;;;;;;2.22;0.45;;;20.40;40.50;;;;;;5074753;28;20534;-77
2022/05/26 11:38:33;;;;;;;1.05;0.38;;;20.60;39.40;;;;;;5075245;28;20081;-77
2022/05/26 11:41:06;;;;;;;0.57;0.50;;;20.40;39.70;;;;;;5074858;28;20048;-78
2022/05/26 11:43:57;;;;;;;1.15;0.40;;;20.40;39.30;;;;;;5074807;28;20481;-77
2022/05/26 11:46:41;;;;;;;0.93;0.30;;;20.10;39.10;;;;;;5074833;28;20118;-77
2022/05/26 11:49:10;;;;;;;0.85;0.20;;;19.80;40.30;;;;;;5074605;28;20032;-77
2022/05/26 11:51:41;;;;;;;2.65;0.32;;;19.60;40.60;;;;;;5074600;28;20021;-77
2022/05/26 11:54:09;;;;;;;1.95;0.40;;;19.30;42.30;;;;;;5074575;28;20069;-78
2022/05/26 11:56:43;;;;;;;2.85;0.43;;;19.60;42.10;;;;;;5074558;28;20085;-77
2022/05/26 11:59:42;;;;;;;2.10;0.50;;;19.80;41.80;;;;;;5074384;28;20526;-77
2022/05/26 12:02:13;;;;;;;0.57;0.40;;;19.80;41.60;;;;;;5074422;28;20102;-78
2022/05/26 12:04:42;;;;;;;2.63;0.40;;;19.90;40.30;;;;;;5074260;28;20028;-77
2022/05/26 12:07:20;;;;;;;1.70;0.50;;;19.70;40.70;;;;;;5074275;28;20115;-77
2022/05/26 12:09:52;;;;;;;5.28;0.30;;;19.70;41.80;;;;;;5074172;28;20484;-78
2022/05/26 12:12:18;;;;;;;1.88;0.35;;;19.80;42.30;;;;;;5074107;28;20028;-78
2022/05/26 12:14:46;;;;;;;1.33;0.60;;;19.90;42.80;;;;;;5072817;28;20029;-77
2022/05/26 12:17:30;;;;;;;1.30;0.50;;;19.70;43.20;;;;;;5074235;28;20025;-78
2022/05/26 12:20:16;;;;;;;1.30;0.52;;;19.70;44.00;;;;;;5073943;28;20046;-78
2022/05/26 12:22:47;;;;;;;;;;;19.80;44.60;;;;;;5071529;28;20476;-78
2022/05/26 12:25:35;;;;;;;1.00;0.30;;;19.80;43.20;;;;;;5073978;28;20571;-78
2022/05/26 12:28:31;;;;;;;1.48;0.43;;;19.80;43.50;;;;;;5073668;28;20401;-77
2022/05/26 12:30:56;;;;;;;2.10;0.50;;;19.90;43.50;;;;;;5073914;28;20016;-77
2022/05/26 12:33:48;;;;;;;2.38;0.65;;;19.60;44.40;;;;;;5073983;28;20086;-77
2022/05/26 12:36:35;;;;;;;2.10;0.60;;;19.70;44.10;;;;;;5073888;28;20036;-77
2022/05/26 12:39:10;;;;;;;2.55;0.57;;;19.80;43.80;;;;;;5073282;28;20050;-77
2022/05/26 12:41:56;;;;;;;1.73;0.47;;;20.00;43.60;;;;;;5073703;28;20017;-76
2022/05/26 12:44:48;;;;;;;1.08;0.38;;;20.10;43.50;;;;;;5073630;28;20020;-77
2022/05/26 12:47:16;;;;;;;2.03;0.50;;;20.30;43.90;;;;;;5073655;28;20028;-77
2022/05/26 12:49:54;;;;;;;3.10;0.32;;;20.60;41.70;;;;;;5073401;28;20400;-78
2022/05/26 12:52:39;;;;;;;1.02;0.55;;;20.40;41.40;;;;;;5073579;28;20017;-76
2022/05/26 12:55:24;;;;;;;;;;;20.50;41.10;;;;;;5069746;28;20036;-75
2022/05/26 12:58:11;;;;;;;1.35;0.30;;;21.10;40.10;;;;;;5073339;28;19987;-77
2022/05/26 13:00:45;;;;;;;2.92;0.70;;;21.50;39.10;;;;;;5072147;28;20043;-74
2022/05/26 13:03:23;;;;;;;1.40;0.50;;;21.80;39.00;;;;;;5073404;28;20034;-75
2022/05/26 13:06:20;;;;;;;2.53;0.60;;;21.60;39.50;;;;;;5073347;28;20255;-78
2022/05/26 13:09:12;;;;;;;1.73;0.68;;;21.40;40.00;;;;;;5063340;28;20040;-74
2022/05/26 13:11:57;;;;;;;0.88;0.50;;;21.50;40.40;;;;;;5073108;28;20056;-78
2022/05/26 13:14:32;;;;;;;1.30;0.45;;;21.40;40.10;;;;;;5073182;28;20024;-78
2022/05/26 13:17:01;;;;;;;1.95;0.57;;;21.30;40.50;;;;;;5073095;28;20059;-77
2022/05/26 13:19:27;;;;;;;2.47;0.80;;;21.40;41.10;;;;;;5073123;28;20491;-77
2022/05/26 13:21:54;;;;;;;1.65;0.43;;;21.20;41.30;;;;;;5073088;28;20025;-76
2022/05/26 13:24:31;;;;;;;1.15;0.57;;;21.10;42.00;;;;;;5073187;28;20017;-73
2022/05/26 13:26:58;;;;;;;3.40;1.30;;;21.10;42.00;;;;;;5073032;28;20020;-73
2022/05/26 13:29:25;;;;;;;1.98;1.17;;;20.90;42.40;;;;;;5072773;28;20071;-78
2022/05/26 13:34:44;;;;;;;2.78;0.50;;;21.00;41.40;;;;;;5073176;28;20047;-77
2022/05/26 13:37:22;;;;;;;1.02;0.32;;;20.90;41.00;;;;;;5072886;28;20103;-74
2022/05/26 13:40:18;;;;;;;0.82;0.30;;;20.80;41.20;;;;;;5072829;28;20351;-77
2022/05/26 13:42:46;;;;;;;1.27;0.25;;;20.70;42.10;;;;;;5072906;28;20060;-78
2022/05/26 13:45:30;;;;;;;0.40;0.40;;;20.80;41.80;;;;;;5072892;28;20032;-78
2022/05/26 13:48:35;;;;;;;0.75;0.40;;;21.00;40.80;;;;;;5072720;28;20035;-78
2022/05/26 13:51:08;;;;;;;4.00;0.80;;;21.10;40.70;;;;;;5075487;28;20108;-77
2022/05/26 13:53:38;;;;;;;2.17;0.63;;;20.90;40.80;;;;;;5076757;28;20028;-76
2022/05/26 13:56:06;;;;;;;1.23;0.57;;;20.90;40.90;;;;;;5076821;28;20481;-77
2022/05/26 13:58:33;;;;;;;1.73;0.55;;;21.00;40.90;;;;;;5076681;28;20034;-78
2022/05/26 14:01:08;;;;;;;1.10;0.45;;;21.10;40.70;;;;;;5075330;28;20400;-77